Time;durP1;ratioP1;P1;durP2;ratioP2;P2;SDS_P1;SDS_P2;PMS_P1;PMS_P2;Temp;Humidity;BMP_temperature;BMP_pressure;BME280_temperature;BME280_humidity;BME280_pressure;Samples;Min_cycle;Max_cycle;Signal;HPM_P1;HPM_P2
2022/03/30 00:00:51;;;;;;;6.25;2.85;;;6.00;1.00;;;;;;4972623;28;20236;-78
2022/03/30 00:03:21;;;;;;;9.02;2.75;;;6.00;1.00;;;;;;4970691;28;20307;-78
2022/03/30 00:05:51;;;;;;;6.55;2.40;;;5.90;1.00;;;;;;4967003;28;21035;-78
2022/03/30 00:08:32;;;;;;;8.43;3.25;;;5.80;1.00;;;;;;4970709;28;20722;-78
2022/03/30 00:11:01;;;;;;;9.73;4.45;;;5.80;1.00;;;;;;4980719;28;20243;-77
2022/03/30 00:13:32;;;;;;;8.15;2.90;;;5.80;1.00;;;;;;4979487;28;20228;-78
2022/03/30 00:16:02;;;;;;;8.70;3.58;;;5.70;1.00;;;;;;4968735;28;20249;-78
2022/03/30 00:18:32;;;;;;;6.15;3.53;;;5.70;1.00;;;;;;4968696;28;20414;-78
2022/03/30 00:21:10;;;;;;;9.52;3.30;;;5.70;1.00;;;;;;4955402;28;20239;-83
2022/03/30 00:23:43;;;;;;;7.28;3.25;;;5.60;1.00;;;;;;4976579;28;20243;-79
2022/03/30 00:26:32;;;;;;;8.50;3.42;;;5.60;1.00;;;;;;4971630;28;20213;-78
2022/03/30 00:29:05;;;;;;;7.40;3.47;;;5.60;1.00;;;;;;4972114;28;20311;-79
2022/03/30 00:31:33;;;;;;;9.32;3.13;;;5.60;1.00;;;;;;4968909;28;20320;-78
2022/03/30 00:34:02;;;;;;;7.68;3.05;;;5.60;1.00;;;;;;4963646;28;20236;-80
2022/03/30 00:36:32;;;;;;;8.40;2.78;;;5.50;1.00;;;;;;4966697;28;20256;-79
2022/03/30 00:39:05;;;;;;;12.85;3.20;;;5.60;1.00;;;;;;4970419;28;20232;-79
2022/03/30 00:41:32;;;;;;;7.18;2.50;;;5.50;1.00;;;;;;4971961;28;20228;-77
2022/03/30 00:44:24;;;;;;;7.10;2.88;;;5.50;1.00;;;;;;4959104;28;20307;-77
2022/03/30 00:46:54;;;;;;;7.00;3.03;;;5.50;1.00;;;;;;4971763;28;20331;-78
2022/03/30 00:49:21;;;;;;;11.40;3.10;;;5.50;1.00;;;;;;4963380;28;20224;-78
2022/03/30 00:51:51;;;;;;;10.73;3.70;;;5.50;1.00;;;;;;4958679;28;20256;-78
2022/03/30 00:54:23;;;;;;;8.18;3.10;;;5.50;1.00;;;;;;4978208;28;20280;-77
2022/03/30 00:56:52;;;;;;;7.50;2.85;;;5.50;1.00;;;;;;4961915;28;20248;-77
2022/03/30 00:59:30;;;;;;;7.07;3.00;;;5.50;1.00;;;;;;4977778;28;20240;-77
2022/03/30 01:02:03;;;;;;;5.93;2.90;;;5.40;1.00;;;;;;4970318;28;20252;-78
2022/03/30 01:04:33;;;;;;;6.38;2.95;;;5.40;1.00;;;;;;4972284;28;20284;-78
2022/03/30 01:07:02;;;;;;;7.47;2.70;;;5.30;1.00;;;;;;4968459;28;20221;-79
2022/03/30 01:09:32;;;;;;;10.13;3.15;;;5.30;1.00;;;;;;4966402;28;20236;-78
2022/03/30 01:12:02;;;;;;;3.92;2.50;;;5.30;1.00;;;;;;4970271;28;20252;-78
2022/03/30 01:14:32;;;;;;;5.20;2.22;;;5.30;1.00;;;;;;4970886;28;20236;-78
2022/03/30 01:17:02;;;;;;;7.72;3.75;;;5.30;1.00;;;;;;4952047;28;20216;-78
2022/03/30 01:19:41;;;;;;;6.68;3.42;;;5.30;1.00;;;;;;4951480;28;20284;-78
2022/03/30 01:22:09;;;;;;;11.25;4.00;;;5.30;1.00;;;;;;4944565;23;20304;-79
2022/03/30 01:24:41;;;;;;;7.75;2.70;;;5.30;1.00;;;;;;4932881;28;20304;-78
2022/03/30 01:27:08;;;;;;;9.10;3.25;;;5.20;1.00;;;;;;4942481;28;23386;-78
2022/03/30 01:32:26;;;;;;;5.15;2.90;;;5.20;1.00;;;;;;4932036;28;20236;-78
2022/03/30 01:34:54;;;;;;;7.35;2.65;;;5.20;1.00;;;;;;4910828;28;20448;-78
2022/03/30 01:37:26;;;;;;;9.77;3.63;;;5.20;1.00;;;;;;4922805;28;20249;-78
2022/03/30 01:40:21;;;;;;;9.63;3.17;;;5.30;1.00;;;;;;4919407;28;20238;-78
2022/03/30 01:43:28;;;;;;;7.55;2.72;;;5.20;1.00;;;;;;4925644;28;20241;-80
2022/03/30 01:46:01;;;;;;;6.45;2.60;;;5.30;1.00;;;;;;4918521;28;20237;-78
2022/03/30 01:48:31;;;;;;;9.23;3.17;;;5.30;1.00;;;;;;4933946;28;20222;-77
2022/03/30 01:51:04;;;;;;;8.63;3.00;;;5.30;1.00;;;;;;4933424;23;20236;-77
2022/03/30 01:53:32;;;;;;;11.85;3.80;;;5.30;1.00;;;;;;4929670;28;20230;-78
2022/03/30 01:56:02;;;;;;;9.05;2.90;;;5.30;1.00;;;;;;4923413;28;21784;-78
2022/03/30 01:58:31;;;;;;;6.93;3.58;;;5.30;1.00;;;;;;4930429;28;20248;-77
2022/03/30 02:01:05;;;;;;;7.72;3.85;;;5.30;1.00;;;;;;4926457;28;20273;-78
2022/03/30 02:04:20;;;;;;;13.63;4.15;;;5.30;1.00;;;;;;4939492;28;20236;-77
2022/03/30 02:07:02;;;;;;;6.43;2.65;;;5.30;1.00;;;;;;4887882;29;20239;-79
2022/03/30 02:13:27;;;;;;;7.85;3.65;;;5.30;1.00;;;;;;4880839;29;20265;-77
2022/03/30 02:15:57;;;;;;;6.32;3.85;;;5.30;1.00;;;;;;4892424;29;20231;-79
2022/03/30 02:18:27;;;;;;;7.97;3.78;;;5.30;1.00;;;;;;4923830;28;20241;-78
2022/03/30 02:20:56;;;;;;;8.98;3.90;;;5.30;1.00;;;;;;4933189;28;20220;-78
2022/03/30 02:23:26;;;;;;;9.32;4.30;;;5.30;1.00;;;;;;4936091;28;20269;-79
2022/03/30 02:25:57;;;;;;;10.35;3.80;;;5.30;1.00;;;;;;4934052;28;20329;-77
2022/03/30 02:28:29;;;;;;;12.05;5.38;;;5.30;1.00;;;;;;4940433;28;20229;-78
2022/03/30 02:30:56;;;;;;;12.32;4.60;;;5.30;1.00;;;;;;4945412;28;20225;-77
2022/03/30 02:33:27;;;;;;;17.17;6.28;;;5.30;1.00;;;;;;4933675;28;20435;-77
2022/03/30 02:35:58;;;;;;;7.10;4.07;;;5.20;1.00;;;;;;4925386;28;21589;-77
2022/03/30 02:38:27;;;;;;;8.75;5.63;;;5.20;1.00;;;;;;4925704;28;20935;-77
2022/03/30 02:40:59;;;;;;;9.55;4.35;;;5.10;1.00;;;;;;4925569;28;20287;-78
2022/03/30 02:43:39;;;;;;;9.80;4.30;;;5.10;1.00;;;;;;4927594;28;20233;-78
2022/03/30 02:46:19;;;;;;;9.43;4.85;;;5.00;1.00;;;;;;4936835;28;20277;-78
2022/03/30 02:49:00;;;;;;;14.20;4.25;;;5.00;1.00;;;;;;4936029;28;20233;-78
2022/03/30 02:51:38;;;;;;;10.60;4.95;;;5.00;1.00;;;;;;4931460;28;20369;-79
2022/03/30 02:54:08;;;;;;;19.52;6.00;;;4.90;1.00;;;;;;4920958;28;20240;-78
2022/03/30 02:56:35;;;;;;;9.60;4.55;;;4.90;1.00;;;;;;4930317;28;20315;-78
2022/03/30 03:02:09;;;;;;;10.52;5.00;;;4.90;1.00;;;;;;4928427;28;20679;-78
2022/03/30 03:04:41;;;;;;;7.88;3.65;;;4.90;1.00;;;;;;4938464;28;20225;-79
2022/03/30 03:07:09;;;;;;;11.82;3.80;;;5.00;1.00;;;;;;4930171;28;20233;-77
2022/03/30 03:09:41;;;;;;;7.80;3.60;;;5.00;1.00;;;;;;4933108;28;20321;-78
2022/03/30 03:12:09;;;;;;;8.00;3.60;;;5.10;1.00;;;;;;4929074;28;20249;-78
2022/03/30 03:14:41;;;;;;;6.95;3.95;;;5.10;1.00;;;;;;4929525;28;20248;-77
2022/03/30 03:17:09;;;;;;;11.23;3.70;;;5.10;1.00;;;;;;4930878;28;20290;-79
2022/03/30 03:19:40;;;;;;;6.35;2.85;;;5.10;1.00;;;;;;4925238;28;20239;-78
2022/03/30 03:22:19;;;;;;;10.77;4.47;;;5.10;1.00;;;;;;4934477;28;20222;-77
2022/03/30 03:24:50;;;;;;;8.25;3.40;;;5.10;1.00;;;;;;4936157;28;20229;-77
2022/03/30 03:27:16;;;;;;;8.20;3.35;;;5.00;1.00;;;;;;4928943;28;20293;-80
2022/03/30 03:29:56;;;;;;;10.48;3.47;;;5.00;1.00;;;;;;4936255;28;20306;-77
2022/03/30 03:32:27;;;;;;;7.93;3.15;;;5.00;1.00;;;;;;4932260;28;21045;-78
2022/03/30 03:35:01;;;;;;;9.98;5.43;;;5.10;1.00;;;;;;4925270;28;20261;-78
2022/03/30 03:37:29;;;;;;;8.40;3.53;;;5.10;1.00;;;;;;4935053;28;20241;-77
2022/03/30 03:39:59;;;;;;;12.38;4.40;;;5.10;1.00;;;;;;4928929;28;20250;-77
2022/03/30 03:42:31;;;;;;;9.25;4.30;;;5.10;1.00;;;;;;4935403;28;20234;-79
2022/03/30 03:45:00;;;;;;;10.63;3.13;;;5.00;1.00;;;;;;4932277;28;20395;-77
2022/03/30 03:47:29;;;;;;;12.38;3.75;;;5.00;1.00;;;;;;4931582;28;20349;-78
2022/03/30 03:50:00;;;;;;;6.65;3.40;;;5.00;1.00;;;;;;4933452;28;20273;-78
2022/03/30 03:52:31;;;;;;;11.48;4.47;;;5.00;1.00;;;;;;4931260;28;20214;-78
2022/03/30 03:54:59;;;;;;;9.50;3.63;;;5.00;1.00;;;;;;4932993;28;20251;-76
2022/03/30 03:57:26;;;;;;;14.18;4.40;;;4.90;1.00;;;;;;4925151;28;20245;-78
2022/03/30 03:59:52;;;;;;;8.32;3.10;;;4.90;1.00;;;;;;4936243;28;20238;-78
2022/03/30 04:02:21;;;;;;;8.43;3.60;;;4.90;1.00;;;;;;4927825;28;20214;-78
2022/03/30 04:04:49;;;;;;;7.68;3.10;;;4.80;1.00;;;;;;4935756;28;20290;-78
2022/03/30 04:07:19;;;;;;;9.75;3.85;;;4.80;1.00;;;;;;4945261;28;20249;-78
2022/03/30 04:09:46;;;;;;;13.10;3.75;;;4.80;1.00;;;;;;4945820;28;20237;-78
2022/03/30 04:12:12;;;;;;;6.82;3.67;;;4.80;1.00;;;;;;4941352;28;20221;-79
2022/03/30 04:14:39;;;;;;;8.70;3.38;;;4.80;1.00;;;;;;4936030;28;20237;-77
2022/03/30 04:17:09;;;;;;;12.10;4.55;;;4.80;1.00;;;;;;4919514;28;20791;-78
2022/03/30 04:19:48;;;;;;;14.77;4.55;;;4.90;1.00;;;;;;4923285;28;20422;-77
2022/03/30 04:22:20;;;;;;;9.02;4.07;;;4.80;1.00;;;;;;4929619;28;20234;-77
2022/03/30 04:24:50;;;;;;;8.05;3.95;;;4.80;1.00;;;;;;4934341;28;20305;-77
2022/03/30 04:27:17;;;;;;;13.60;4.25;;;4.80;1.00;;;;;;4934722;28;21389;-75
2022/03/30 04:29:46;;;;;;;11.32;4.45;;;4.80;1.00;;;;;;4926001;28;20249;-76
2022/03/30 04:32:17;;;;;;;10.88;4.78;;;4.80;1.00;;;;;;4932797;28;20279;-77
2022/03/30 04:34:49;;;;;;;10.15;4.07;;;4.90;1.00;;;;;;4933576;28;20269;-76
2022/03/30 04:37:17;;;;;;;8.07;4.30;;;4.90;1.00;;;;;;4935351;28;20322;-76
2022/03/30 04:39:58;;;;;;;10.05;5.05;;;4.90;1.00;;;;;;4926736;28;20226;-78
2022/03/30 04:42:27;;;;;;;9.13;3.55;;;4.90;1.00;;;;;;4924945;28;20213;-76
2022/03/30 04:45:06;;;;;;;16.48;4.85;;;5.00;1.00;;;;;;4926311;28;20234;-76
2022/03/30 04:47:53;;;;;;;11.10;4.78;;;5.00;1.00;;;;;;4934476;28;20233;-75
2022/03/30 04:50:34;;;;;;;;;;;;;;;;;;;;;
2022/03/30 04:53:03;;;;;;;14.18;7.45;;;5.20;1.00;;;;;;4912253;28;40531;-76
2022/03/30 04:55:32;;;;;;;13.40;4.90;;;5.20;1.00;;;;;;4942724;28;20238;-75
2022/03/30 04:58:10;;;;;;;12.55;4.80;;;5.30;1.00;;;;;;4925777;28;20363;-75
2022/03/30 05:01:02;;;;;;;8.10;5.47;;;5.40;1.00;;;;;;4912897;28;20221;-75
2022/03/30 05:03:40;;;;;;;13.20;3.88;;;5.40;1.00;;;;;;4921274;28;20229;-75
2022/03/30 05:06:11;;;;;;;10.98;4.80;;;5.40;1.00;;;;;;4931039;28;20349;-75
2022/03/30 05:08:41;;;;;;;12.85;4.80;;;5.40;1.00;;;;;;4934096;28;20315;-76
2022/03/30 05:11:11;;;;;;;11.25;4.40;;;5.50;1.00;;;;;;4939131;28;20258;-76
2022/03/30 05:13:41;;;;;;;11.80;4.68;;;5.50;1.00;;;;;;4934265;28;20230;-76
2022/03/30 05:16:12;;;;;;;8.05;3.92;;;5.50;1.00;;;;;;4930071;28;20270;-74
2022/03/30 05:18:41;;;;;;;9.60;5.72;;;5.60;1.00;;;;;;4930552;28;20250;-75
2022/03/30 05:21:11;;;;;;;10.70;4.50;;;5.70;1.00;;;;;;4923973;28;20229;-75
2022/03/30 05:23:43;;;;;;;9.70;4.85;;;5.70;1.00;;;;;;4947235;28;20227;-75
2022/03/30 05:26:11;;;;;;;9.88;4.40;;;5.70;1.00;;;;;;4922223;28;20257;-76
2022/03/30 05:29:10;;;;;;;16.65;5.30;;;5.80;1.00;;;;;;4937387;28;20249;-74
2022/03/30 05:31:45;;;;;;;8.30;5.07;;;5.90;1.00;;;;;;4932532;28;20242;-76
2022/03/30 05:34:13;;;;;;;13.10;5.47;;;5.90;1.00;;;;;;4930625;28;20285;-76
2022/03/30 05:36:54;;;;;;;12.50;5.38;;;6.00;1.00;;;;;;4933587;28;20246;-75
2022/03/30 05:39:25;;;;;;;16.25;4.50;;;6.00;1.00;;;;;;4919381;28;20245;-76
2022/03/30 05:42:16;;;;;;;;;;;;;;;;;;;;;
2022/03/30 05:44:50;;;;;;;15.38;6.45;;;6.10;1.00;;;;;;4934490;28;40363;-76
2022/03/30 05:47:22;;;;;;;12.45;5.13;;;6.10;1.00;;;;;;4935658;28;20238;-74
2022/03/30 05:49:51;;;;;;;12.73;4.32;;;6.20;1.00;;;;;;4921775;28;20247;-78
2022/03/30 05:52:39;;;;;;;12.13;4.55;;;6.20;1.00;;;;;;4940437;28;20230;-80
2022/03/30 05:55:10;;;;;;;6.82;4.60;;;6.30;1.00;;;;;;4936655;28;20264;-77
2022/03/30 06:01:20;;;;;;;12.10;4.28;;;6.40;1.00;;;;;;4824683;29;20291;-76
2022/03/30 06:04:00;;;;;;;9.10;4.20;;;6.50;1.00;;;;;;4870008;28;21248;-76
2022/03/30 06:06:27;;;;;;;10.23;4.78;;;6.50;1.00;;;;;;4929316;28;20232;-75
2022/03/30 06:08:55;;;;;;;14.00;3.90;;;6.60;1.00;;;;;;4924013;28;20520;-76
2022/03/30 06:11:22;;;;;;;12.40;4.65;;;6.80;1.00;;;;;;4928418;28;20289;-76
2022/03/30 06:13:51;;;;;;;14.07;6.65;;;6.90;1.00;;;;;;4928583;28;20258;-75
2022/03/30 06:16:18;;;;;;;13.82;4.68;;;6.90;1.00;;;;;;4937289;28;20316;-76
2022/03/30 06:18:50;;;;;;;9.30;3.85;;;7.00;1.00;;;;;;4931911;28;21359;-75
2022/03/30 06:21:19;;;;;;;16.30;4.75;;;7.10;1.00;;;;;;4928610;23;20225;-74
2022/03/30 06:23:57;;;;;;;8.23;3.75;;;7.10;1.00;;;;;;4952371;28;20239;-75
2022/03/30 06:26:29;;;;;;;8.05;4.32;;;7.20;1.00;;;;;;4948122;28;20213;-76
2022/03/30 06:28:57;;;;;;;11.73;4.53;;;7.20;1.00;;;;;;4946487;28;20293;-75
2022/03/30 06:31:28;;;;;;;6.68;3.80;;;7.20;1.00;;;;;;4965228;23;20292;-76
2022/03/30 06:33:58;;;;;;;9.85;3.42;;;7.30;1.00;;;;;;4946980;28;20251;-75
2022/03/30 06:36:28;;;;;;;10.65;4.32;;;7.40;1.00;;;;;;4944411;28;20261;-74
2022/03/30 06:38:58;;;;;;;9.57;4.10;;;7.40;1.00;;;;;;4953471;28;20257;-76
2022/03/30 06:41:29;;;;;;;11.77;4.30;;;7.40;1.00;;;;;;4945851;28;20229;-78
2022/03/30 06:43:56;;;;;;;6.32;4.22;;;7.40;1.00;;;;;;4943537;28;20483;-77
2022/03/30 06:46:25;;;;;;;18.30;4.28;;;7.60;1.00;;;;;;4941253;28;20237;-74
2022/03/30 06:48:55;;;;;;;9.77;3.90;;;7.60;1.00;;;;;;4947145;28;20225;-77
2022/03/30 06:51:27;;;;;;;10.63;3.78;;;7.70;1.00;;;;;;4936100;28;20267;-75
2022/03/30 06:53:55;;;;;;;10.13;3.95;;;7.80;1.00;;;;;;4926909;28;20341;-74
2022/03/30 06:56:25;;;;;;;19.30;6.80;;;7.80;1.00;;;;;;4960429;28;20297;-76
2022/03/30 06:58:56;;;;;;;12.45;5.10;;;7.90;1.00;;;;;;4926723;28;20250;-76
2022/03/30 07:01:27;;;;;;;7.35;3.10;;;8.00;1.00;;;;;;4934933;23;20265;-75
2022/03/30 07:03:57;;;;;;;11.35;4.60;;;8.10;1.00;;;;;;4941254;28;20249;-76
2022/03/30 07:06:24;;;;;;;9.23;4.47;;;8.20;1.00;;;;;;4928573;28;20237;-77
2022/03/30 07:11:35;;;;;;;8.88;3.10;;;8.40;1.00;;;;;;4997294;23;20356;-76
2022/03/30 07:14:05;;;;;;;11.50;5.67;;;8.50;1.00;;;;;;4904630;28;20237;-75
2022/03/30 07:16:32;;;;;;;9.35;3.40;;;8.60;1.00;;;;;;4936110;28;20570;-77
2022/03/30 07:19:08;;;;;;;11.55;4.57;;;8.70;1.00;;;;;;4941406;28;20246;-75
2022/03/30 07:21:35;;;;;;;17.55;5.60;;;8.80;1.00;;;;;;4946637;28;20248;-75
2022/03/30 07:24:01;;;;;;;11.05;4.65;;;8.80;1.00;;;;;;4956440;28;20247;-74
2022/03/30 07:26:28;;;;;;;6.22;3.53;;;8.80;1.00;;;;;;4929514;28;20304;-77
2022/03/30 07:28:59;;;;;;;7.53;3.53;;;8.90;1.00;;;;;;4932376;28;20229;-74
2022/03/30 07:31:28;;;;;;;10.35;4.18;;;9.00;1.00;;;;;;4986580;23;20628;-76
2022/03/30 07:33:56;;;;;;;11.52;4.22;;;9.10;1.00;;;;;;4922896;28;20248;-75
2022/03/30 07:36:29;;;;;;;10.53;3.43;;;9.20;1.00;;;;;;4917533;28;20228;-75
2022/03/30 07:38:56;;;;;;;12.50;4.30;;;9.30;1.00;;;;;;4913225;28;20422;-75
2022/03/30 07:41:27;;;;;;;10.50;3.85;;;9.40;1.00;;;;;;4929842;28;20434;-75
2022/03/30 07:43:56;;;;;;;11.37;3.87;;;9.40;1.00;;;;;;4917357;28;20233;-78
2022/03/30 07:46:25;;;;;;;8.50;4.23;;;9.40;1.00;;;;;;4931463;28;20473;-75
2022/03/30 07:48:57;;;;;;;7.30;3.60;;;9.60;1.00;;;;;;4944485;28;20430;-77
2022/03/30 07:51:29;;;;;;;11.43;4.57;;;9.70;1.00;;;;;;4932336;23;20481;-74
2022/03/30 07:54:06;;;;;;;11.63;4.70;;;9.70;1.00;;;;;;4970932;28;20233;-74
2022/03/30 07:56:39;;;;;;;6.83;3.40;;;9.70;1.00;;;;;;4974740;28;20475;-75
2022/03/30 07:59:08;;;;;;;9.63;4.10;;;9.70;1.00;;;;;;4971652;28;20491;-76
2022/03/30 08:01:35;;;;;;;9.10;3.53;;;9.80;1.00;;;;;;4954224;28;20503;-76
2022/03/30 08:04:08;;;;;;;10.30;3.90;;;9.80;1.00;;;;;;4948465;28;20426;-78
2022/03/30 08:06:38;;;;;;;10.23;3.50;;;9.90;1.00;;;;;;4945526;28;20464;-74
2022/03/30 08:09:08;;;;;;;7.73;3.30;;;10.00;1.00;;;;;;4948376;28;20437;-74
2022/03/30 08:11:36;;;;;;;8.53;3.80;;;10.10;1.00;;;;;;4953986;28;20443;-75
2022/03/30 08:14:19;;;;;;;5.60;2.50;;;10.10;1.00;;;;;;4939802;28;20460;-76
2022/03/30 08:16:46;;;;;;;9.03;2.10;;;10.00;1.00;;;;;;4932076;28;20458;-76
2022/03/30 08:19:17;;;;;;;8.53;3.00;;;10.10;1.00;;;;;;4953938;28;20646;-76
2022/03/30 08:22:29;;;;;;;4.87;2.40;;;10.30;1.00;;;;;;4946009;28;20469;-75
2022/03/30 08:25:10;;;;;;;8.50;2.60;;;10.40;1.00;;;;;;4944882;28;20537;-76
2022/03/30 08:27:48;;;;;;;7.80;3.67;;;10.60;1.00;;;;;;4937693;28;20500;-77
2022/03/30 08:30:19;;;;;;;6.60;2.20;;;10.60;1.00;;;;;;4956009;28;20445;-76
2022/03/30 08:33:09;;;;;;;10.10;4.03;;;10.70;1.00;;;;;;4950601;28;20667;-75
2022/03/30 08:35:37;;;;;;;8.50;3.10;;;10.90;1.00;;;;;;4948951;28;20434;-75
2022/03/30 08:38:07;;;;;;;9.77;3.43;;;11.00;1.00;;;;;;4955158;28;20452;-76
2022/03/30 08:40:36;;;;;;;6.87;2.80;;;11.20;1.00;;;;;;4950859;28;20544;-74
2022/03/30 08:43:07;;;;;;;12.47;3.90;;;11.30;1.00;;;;;;4948742;28;20425;-75
2022/03/30 08:45:36;;;;;;;7.73;3.70;;;11.50;1.00;;;;;;4955940;28;20441;-76
2022/03/30 08:48:06;;;;;;;7.73;3.60;;;11.50;1.00;;;;;;4944323;28;20468;-73
2022/03/30 08:50:34;;;;;;;7.60;3.00;;;11.40;1.00;;;;;;4944741;28;20567;-76
2022/03/30 08:53:19;;;;;;;6.03;2.97;;;11.30;1.00;;;;;;4957380;28;20452;-76
2022/03/30 08:55:48;;;;;;;12.47;3.10;;;11.30;1.00;;;;;;4960804;28;20444;-74
2022/03/30 08:58:18;;;;;;;9.63;3.80;;;11.30;1.00;;;;;;4955184;28;20465;-76
2022/03/30 09:00:46;;;;;;;11.03;4.47;;;11.50;1.00;;;;;;4952734;28;20441;-76
2022/03/30 09:03:17;;;;;;;8.80;3.93;;;11.60;1.00;;;;;;4951234;28;20437;-76
2022/03/30 09:05:49;;;;;;;8.50;2.97;;;11.80;1.00;;;;;;4953421;28;20453;-80
2022/03/30 09:08:19;;;;;;;18.73;5.60;;;11.80;1.00;;;;;;4947192;28;20472;-76
2022/03/30 09:10:56;;;;;;;10.30;3.40;;;11.60;1.00;;;;;;4953351;28;20484;-76
2022/03/30 09:13:35;;;;;;;6.30;2.93;;;11.40;1.00;;;;;;4950733;28;20421;-76
2022/03/30 09:16:14;;;;;;;9.73;2.93;;;11.40;1.00;;;;;;4950434;28;20571;-75
2022/03/30 09:19:01;;;;;;;12.10;3.20;;;11.30;1.00;;;;;;4944736;28;20575;-78
2022/03/30 09:21:46;;;;;;;12.63;4.13;;;11.50;1.00;;;;;;5033270;23;20555;-75
2022/03/30 09:24:29;;;;;;;6.33;2.63;;;11.60;1.00;;;;;;4970599;28;20456;-76
2022/03/30 09:27:01;;;;;;;7.27;3.77;;;11.80;1.00;;;;;;4967737;28;20440;-77
2022/03/30 09:29:31;;;;;;;5.97;3.00;;;11.80;1.00;;;;;;4967392;28;21261;-75
2022/03/30 09:32:02;;;;;;;7.47;2.90;;;11.70;1.00;;;;;;4941225;28;20474;-74
2022/03/30 09:34:36;;;;;;;6.53;3.13;;;11.90;1.00;;;;;;4940458;28;20875;-75
2022/03/30 09:37:11;;;;;;;7.77;2.80;;;11.70;1.00;;;;;;4948902;28;20492;-76
2022/03/30 09:39:40;;;;;;;4.60;2.77;;;11.90;1.00;;;;;;4946938;28;20508;-75
2022/03/30 09:42:10;;;;;;;5.13;2.93;;;12.20;1.00;;;;;;4952482;28;20572;-77
2022/03/30 09:44:48;;;;;;;5.87;3.17;;;12.40;1.00;;;;;;4950653;28;20476;-77
2022/03/30 09:47:15;;;;;;;4.80;2.47;;;12.50;1.00;;;;;;4941957;28;20536;-77
2022/03/30 09:49:48;;;;;;;5.83;3.37;;;12.70;1.00;;;;;;4949980;28;20457;-75
2022/03/30 09:52:25;;;;;;;5.57;2.77;;;12.80;1.00;;;;;;4942853;28;20466;-75
2022/03/30 09:55:08;;;;;;;4.13;2.17;;;12.90;1.00;;;;;;4948149;28;20495;-77
2022/03/30 09:57:48;;;;;;;5.40;2.20;;;12.80;1.00;;;;;;4939230;28;20479;-74
2022/03/30 10:00:18;;;;;;;6.53;2.40;;;12.80;1.00;;;;;;4946660;28;20456;-74
2022/03/30 10:02:49;;;;;;;4.93;1.97;;;13.00;1.00;;;;;;4940237;28;20599;-74
2022/03/30 10:05:21;;;;;;;6.20;2.37;;;13.00;1.00;;;;;;4948676;28;20445;-75
2022/03/30 10:07:50;;;;;;;6.87;2.30;;;13.30;1.00;;;;;;4954269;28;20469;-75
2022/03/30 10:10:27;;;;;;;8.03;3.40;;;13.40;1.00;;;;;;4948767;28;20463;-75
2022/03/30 10:12:58;;;;;;;4.77;2.20;;;13.40;1.00;;;;;;4941223;28;20445;-75
2022/03/30 10:15:30;;;;;;;5.90;2.73;;;13.10;1.00;;;;;;4957897;28;20437;-74
2022/03/30 10:17:59;;;;;;;4.33;2.10;;;12.90;1.00;;;;;;4947891;28;20549;-75
2022/03/30 10:20:31;;;;;;;4.83;2.23;;;12.70;1.00;;;;;;4949246;28;20470;-77
2022/03/30 10:23:26;;;;;;;5.53;2.10;;;12.70;1.00;;;;;;4930298;28;20480;-76
2022/03/30 10:26:17;;;;;;;6.30;2.37;;;12.80;1.00;;;;;;4944044;28;20473;-76
2022/03/30 10:28:59;;;;;;;6.23;2.20;;;12.60;1.00;;;;;;4944101;28;20478;-76
2022/03/30 10:31:30;;;;;;;10.67;3.30;;;12.50;1.00;;;;;;4945501;28;20492;-76
2022/03/30 10:33:57;;;;;;;5.77;2.40;;;12.40;1.00;;;;;;4951857;28;20469;-75
2022/03/30 10:36:27;;;;;;;3.67;2.20;;;12.20;1.00;;;;;;4953366;28;20429;-75
2022/03/30 10:39:09;;;;;;;7.77;2.43;;;12.40;1.00;;;;;;4950354;28;20441;-75
2022/03/30 10:41:57;;;;;;;8.33;2.50;;;12.60;1.00;;;;;;4944754;28;20434;-76
2022/03/30 10:44:46;;;;;;;7.97;3.07;;;12.70;1.00;;;;;;4952604;28;20437;-75
2022/03/30 10:47:18;;;;;;;8.23;2.67;;;12.60;1.00;;;;;;4943820;28;20434;-75
2022/03/30 10:49:48;;;;;;;5.20;2.83;;;12.40;1.00;;;;;;4954594;28;20474;-76
2022/03/30 10:52:38;;;;;;;3.83;2.70;;;12.40;1.00;;;;;;4953322;28;20524;-76
2022/03/30 10:55:33;;;;;;;6.30;2.73;;;12.50;1.00;;;;;;4957546;28;20442;-75
2022/03/30 10:58:19;;;;;;;7.70;2.97;;;12.40;1.00;;;;;;4942790;28;20600;-77
2022/03/30 11:00:47;;;;;;;15.40;6.00;;;12.70;1.00;;;;;;4955547;28;20568;-75
2022/03/30 11:03:26;;;;;;;7.60;4.17;;;12.80;1.00;;;;;;4955180;28;20414;-75
2022/03/30 11:06:19;;;;;;;9.00;3.53;;;12.80;1.00;;;;;;4930595;28;21403;-77
2022/03/30 11:09:08;;;;;;;8.43;3.03;;;13.00;1.00;;;;;;4941307;28;20437;-77
2022/03/30 11:11:39;;;;;;;4.63;2.80;;;13.00;1.00;;;;;;4921299;28;20481;-76
2022/03/30 11:14:32;;;;;;;5.70;3.30;;;13.00;1.00;;;;;;4942860;28;20449;-75
2022/03/30 11:17:09;;;;;;;8.23;3.33;;;13.00;1.00;;;;;;4952782;28;20460;-75
2022/03/30 11:22:53;;;;;;;11.63;4.20;;;13.20;1.00;;;;;;4947373;28;21904;-79
2022/03/30 11:25:26;;;;;;;6.50;3.47;;;13.40;1.00;;;;;;4958843;28;20450;-77
2022/03/30 11:28:14;;;;;;;10.63;5.63;;;13.80;1.00;;;;;;4955231;28;20437;-77
2022/03/30 11:30:45;;;;;;;6.53;3.60;;;14.20;1.00;;;;;;4937555;28;20441;-77
2022/03/30 11:36:25;;;;;;;6.43;3.50;;;15.40;1.00;;;;;;4926695;28;20426;-75
2022/03/30 11:39:46;;;;;;;;;;;;;;;;;;;;;
2022/03/30 11:46:15;;;;;;;6.40;3.67;;;16.30;1.00;;;;;;4813629;29;20646;-76
2022/03/30 11:49:24;;;;;;;7.23;3.57;;;16.50;1.00;;;;;;4869389;29;20548;-76
2022/03/30 12:08:17;;;;;;;6.13;3.33;;;15.10;1.00;;;;;;4737708;29;21263;-77
2022/03/30 12:10:48;;;;;;;6.30;3.60;;;14.50;1.00;;;;;;4802718;29;20894;-76
2022/03/30 12:13:25;;;;;;;7.10;3.80;;;14.30;1.00;;;;;;4858489;28;20421;-78
2022/03/30 12:16:13;;;;;;;6.77;3.80;;;13.90;1.00;;;;;;4960106;28;20506;-77
2022/03/30 12:18:46;;;;;;;6.10;3.77;;;13.80;1.00;;;;;;4957926;28;20418;-77
2022/03/30 12:21:15;;;;;;;8.00;3.40;;;13.70;1.00;;;;;;4955310;28;20428;-78
2022/03/30 12:32:44;;;;;;;6.83;4.03;;;13.40;1.00;;;;;;4918806;23;20432;-79
2022/03/30 12:35:16;;;;;;;5.93;3.60;;;13.50;1.00;;;;;;4943341;28;20433;-76
2022/03/30 12:40:56;;;;;;;6.73;3.90;;;13.50;1.00;;;;;;4947917;23;20496;-77
2022/03/30 12:43:28;;;;;;;6.60;3.57;;;13.60;1.00;;;;;;4977962;28;20431;-78
2022/03/30 12:45:57;;;;;;;11.23;3.70;;;13.70;1.00;;;;;;4972635;28;20528;-77
2022/03/30 12:49:48;;;;;;;7.40;3.70;;;13.70;1.00;;;;;;4962245;28;20540;-78
2022/03/30 12:52:17;;;;;;;4.57;3.77;;;13.30;1.00;;;;;;4948609;28;20769;-79
2022/03/30 12:54:46;;;;;;;7.13;3.60;;;12.80;1.00;;;;;;4979502;28;21879;-77
2022/03/30 12:57:34;;;;;;;5.23;4.00;;;12.70;1.00;;;;;;4973105;28;20440;-78
2022/03/30 13:00:18;;;;;;;8.77;4.77;;;12.50;1.00;;;;;;4975934;28;20523;-77
2022/03/30 13:02:44;;;;;;;5.80;4.23;;;12.40;1.00;;;;;;4961965;28;20474;-78
2022/03/30 13:05:25;;;;;;;6.97;4.20;;;12.10;1.00;;;;;;4976405;28;20431;-78
2022/03/30 13:07:55;;;;;;;8.43;4.27;;;12.10;1.00;;;;;;4963175;28;20423;-78
2022/03/30 13:10:25;;;;;;;4.43;3.50;;;12.00;1.00;;;;;;4973564;23;20606;-78
2022/03/30 13:16:34;;;;;;;5.60;3.87;;;12.20;1.00;;;;;;4907682;28;20461;-78
2022/03/30 13:19:06;;;;;;;8.30;4.30;;;12.50;1.00;;;;;;4936466;28;20452;-78
2022/03/30 13:21:46;;;;;;;12.30;4.60;;;12.60;1.00;;;;;;4953393;23;20436;-77
2022/03/30 13:24:17;;;;;;;5.70;3.63;;;12.80;1.00;;;;;;4957847;28;20496;-77
2022/03/30 13:26:47;;;;;;;4.23;3.20;;;12.90;1.00;;;;;;4944328;28;21335;-77
2022/03/30 13:29:18;;;;;;;6.50;3.20;;;13.00;1.00;;;;;;4947789;28;20505;-77
2022/03/30 13:31:47;;;;;;;12.93;5.43;;;13.10;1.00;;;;;;4962112;23;20449;-76
2022/03/30 13:34:28;;;;;;;6.73;3.07;;;12.70;1.00;;;;;;4960824;28;20421;-78
2022/03/30 13:36:56;;;;;;;7.07;4.27;;;12.60;1.00;;;;;;4945022;28;20502;-78
2022/03/30 13:39:25;;;;;;;6.13;3.30;;;12.50;1.00;;;;;;4958654;28;20414;-77
2022/03/30 13:41:55;;;;;;;7.57;4.40;;;12.40;1.00;;;;;;4953229;23;20452;-77
2022/03/30 13:44:30;;;;;;;6.10;3.37;;;12.50;1.00;;;;;;4953535;28;20497;-77
2022/03/30 13:47:05;;;;;;;7.53;3.50;;;12.50;1.00;;;;;;4945937;28;20469;-77
2022/03/30 13:49:47;;;;;;;4.70;2.80;;;12.50;1.00;;;;;;4954214;28;20410;-77
2022/03/30 13:52:18;;;;;;;7.13;3.47;;;12.40;1.00;;;;;;4945863;28;20425;-77
2022/03/30 13:54:46;;;;;;;4.70;3.40;;;12.30;1.00;;;;;;4955507;28;20466;-79
2022/03/30 13:57:16;;;;;;;7.07;3.20;;;12.10;1.00;;;;;;4960598;28;20430;-75
2022/03/30 13:59:46;;;;;;;6.33;3.00;;;12.20;1.00;;;;;;4962485;28;20425;-76
2022/03/30 14:02:15;;;;;;;5.10;3.30;;;12.10;1.00;;;;;;4959260;28;20439;-78
2022/03/30 14:04:46;;;;;;;5.90;3.00;;;11.90;1.00;;;;;;4963234;28;20426;-77
2022/03/30 14:07:26;;;;;;;6.03;3.40;;;11.90;1.00;;;;;;4964663;28;20544;-77
2022/03/30 14:09:59;;;;;;;9.33;4.10;;;11.90;1.00;;;;;;4966013;28;20425;-77
2022/03/30 14:12:27;;;;;;;6.47;4.23;;;11.80;1.00;;;;;;4982202;23;20456;-76
2022/03/30 14:14:57;;;;;;;4.63;3.70;;;11.60;1.00;;;;;;4969732;28;20511;-78
2022/03/30 14:17:28;;;;;;;6.43;3.70;;;11.40;1.00;;;;;;4981808;28;20469;-77
2022/03/30 14:19:56;;;;;;;4.00;3.30;;;11.30;1.00;;;;;;4982088;28;20432;-76
2022/03/30 14:22:27;;;;;;;8.70;3.20;;;11.20;1.00;;;;;;4967099;28;20582;-75
2022/03/30 14:24:55;;;;;;;5.50;3.57;;;11.20;1.00;;;;;;4962129;28;20430;-78
2022/03/30 14:27:24;;;;;;;6.83;3.40;;;11.10;1.00;;;;;;4966091;28;20456;-75
2022/03/30 14:29:55;;;;;;;7.53;3.43;;;11.10;1.00;;;;;;4961930;28;20433;-76
2022/03/30 14:32:28;;;;;;;8.10;3.87;;;11.00;1.00;;;;;;4962668;28;20445;-74
2022/03/30 14:34:54;;;;;;;7.83;4.23;;;10.80;1.00;;;;;;4959513;28;20472;-77